createdAt,value
2023-04-22T00:03:28.981Z,100.00
2023-04-22T00:08:33.372Z,100.00
2023-04-22T00:13:38.081Z,100.00
2023-04-22T00:18:43.549Z,100.00
2023-04-22T00:23:47.954Z,100.00
2023-04-22T00:28:52.275Z,100.00
2023-04-22T00:33:57.548Z,100.00
2023-04-22T00:39:01.660Z,100.00
2023-04-22T00:44:05.707Z,100.00
2023-04-22T00:49:10.915Z,100.00
2023-04-22T00:54:15.142Z,100.00
2023-04-22T00:59:19.621Z,100.00
2023-04-22T01:04:25.906Z,100.00
2023-04-22T01:09:30.005Z,100.00
2023-04-22T01:14:34.703Z,100.00
2023-04-22T01:19:41.750Z,100.00
2023-04-22T01:24:47.904Z,100.00
2023-04-22T01:29:52.513Z,100.00
2023-04-22T01:34:56.621Z,100.00
2023-04-22T01:40:02.298Z,100.00
2023-04-22T01:45:07.821Z,100.00
2023-04-22T01:50:12.109Z,100.00
2023-04-22T01:55:17.971Z,100.00
2023-04-22T02:00:22.356Z,100.00
2023-04-22T02:05:27.408Z,100.00
2023-04-22T02:10:33.314Z,100.00
2023-04-22T02:15:37.521Z,100.00
2023-04-22T02:20:41.564Z,100.00
2023-04-22T02:25:51.712Z,100.00
2023-04-22T02:30:56.149Z,100.00
2023-04-22T02:36:00.602Z,100.00
2023-04-22T02:41:06.788Z,100.00
2023-04-22T02:46:14.033Z,100.00
2023-04-22T02:51:17.960Z,100.00
2023-04-22T02:56:23.322Z,100.00
2023-04-22T03:01:27.507Z,100.00
2023-04-22T03:06:35.632Z,100.00
2023-04-22T03:11:41.104Z,100.00
2023-04-22T03:16:45.638Z,100.00
2023-04-22T03:21:51.798Z,100.00
2023-04-22T03:26:59.239Z,100.00
2023-04-22T03:32:03.902Z,100.00
2023-04-22T03:37:12.315Z,100.00
2023-04-22T03:42:18.248Z,100.00
2023-04-22T03:47:23.327Z,100.00
2023-04-22T03:52:33.315Z,100.00
2023-04-22T03:57:41.000Z,100.00
2023-04-22T04:02:46.624Z,100.00
2023-04-22T04:07:54.497Z,100.00
2023-04-22T04:13:01.839Z,100.00
2023-04-22T04:18:14.071Z,100.00
2023-04-22T04:23:18.917Z,100.00
2023-04-22T04:28:25.569Z,100.00
2023-04-22T04:33:29.751Z,100.00
2023-04-22T04:38:34.229Z,100.00
2023-04-22T04:43:40.864Z,100.00
2023-04-22T04:48:54.920Z,100.00
2023-04-22T04:53:59.792Z,100.00
2023-04-22T04:59:10.629Z,100.00
2023-04-22T05:04:16.301Z,100.00
2023-04-22T05:09:21.387Z,100.00
2023-04-22T05:14:28.375Z,100.00
2023-04-22T05:19:33.138Z,100.00
2023-04-22T05:24:38.732Z,100.00
2023-04-22T05:29:44.482Z,100.00
2023-04-22T05:34:50.372Z,100.00
2023-04-22T05:39:54.693Z,100.00
2023-04-22T05:45:00.598Z,100.00
2023-04-22T05:50:07.784Z,100.00
2023-04-22T05:55:19.142Z,100.00
2023-04-22T06:00:24.605Z,100.00
2023-04-22T06:05:44.320Z,100.00
2023-04-22T06:10:48.338Z,100.00
2023-04-22T06:15:54.630Z,100.00
2023-04-22T06:20:59.422Z,94.09
2023-04-22T06:26:03.472Z,90.42
2023-04-22T06:31:09.269Z,84.35
2023-04-22T06:36:14.300Z,82.63
2023-04-22T06:41:21.500Z,77.48
2023-04-22T06:46:28.758Z,73.72
2023-04-22T06:52:03.120Z,69.11
2023-04-22T06:57:08.165Z,65.96
2023-04-22T07:02:13.736Z,58.93
2023-04-22T07:07:18.365Z,55.83
2023-04-22T07:12:24.081Z,53.80
2023-04-22T07:17:29.546Z,53.97
2023-04-22T07:22:34.138Z,53.79
2023-04-22T07:27:38.262Z,52.10
2023-04-22T07:32:43.745Z,51.36
2023-04-22T07:37:47.928Z,48.05
2023-04-22T07:42:51.956Z,47.20
2023-04-22T07:47:57.566Z,46.41
2023-04-22T07:53:01.922Z,46.81
2023-04-22T07:58:06.967Z,45.10
2023-04-22T08:03:12.525Z,44.08
2023-04-22T08:08:17.041Z,43.44
2023-04-22T08:13:21.141Z,43.15
2023-04-22T08:18:26.814Z,42.53
2023-04-22T08:23:31.414Z,42.78
2023-04-22T08:28:35.743Z,39.93
2023-04-22T08:33:41.631Z,41.67
2023-04-22T08:38:48.334Z,41.55
2023-04-22T08:43:54.678Z,42.70
2023-04-22T08:49:03.286Z,42.32
2023-04-22T08:54:07.418Z,41.16
2023-04-22T08:59:12.310Z,40.28
2023-04-22T09:04:19.056Z,40.49
2023-04-22T09:09:24.829Z,40.15
2023-04-22T09:14:28.928Z,39.99
2023-04-22T09:19:34.745Z,41.61
2023-04-22T09:24:42.499Z,40.16
2023-04-22T09:29:49.823Z,39.92
2023-04-22T09:34:57.587Z,40.18
2023-04-22T09:40:01.674Z,40.62
2023-04-22T09:45:06.563Z,40.20
2023-04-22T09:50:13.066Z,40.14
2023-04-22T09:55:17.349Z,37.91
2023-04-22T10:00:22.482Z,37.97
2023-04-22T10:05:29.766Z,38.92
2023-04-22T10:10:34.487Z,38.69
2023-04-22T10:15:41.377Z,38.06
2023-04-22T10:20:47.496Z,38.12
2023-04-22T10:25:54.683Z,37.97
2023-04-22T10:30:59.044Z,38.28
2023-04-22T10:36:21.021Z,38.10
2023-04-22T10:41:25.695Z,38.43
2023-04-22T10:47:00.946Z,37.79
2023-04-22T10:52:09.315Z,38.53
2023-04-22T10:57:15.430Z,39.28
2023-04-22T11:02:21.200Z,37.79
2023-04-22T11:07:35.315Z,37.32
2023-04-22T11:12:43.301Z,36.68
2023-04-22T11:17:48.934Z,36.13
2023-04-22T11:22:55.333Z,38.24
2023-04-22T11:27:59.878Z,36.57
2023-04-22T11:33:04.418Z,35.67
2023-04-22T11:38:10.064Z,36.41
2023-04-22T11:43:14.202Z,36.19
2023-04-22T11:48:18.505Z,36.32
2023-04-22T11:53:24.299Z,36.51
2023-04-22T11:58:28.864Z,34.35
2023-04-22T12:03:35.492Z,34.74
2023-04-22T12:08:43.715Z,37.68
2023-04-22T12:13:47.831Z,36.45
2023-04-22T12:18:53.616Z,35.02
2023-04-22T12:24:00.473Z,36.47
2023-04-22T12:29:05.466Z,34.90
2023-04-22T12:34:09.585Z,34.84
2023-04-22T12:39:15.710Z,34.42
2023-04-22T12:44:19.994Z,34.00
2023-04-22T12:49:23.875Z,34.66
2023-04-22T12:54:29.099Z,34.93
2023-04-22T12:59:33.140Z,33.41
2023-04-22T13:04:37.546Z,34.10
2023-04-22T13:09:43.485Z,33.49
2023-04-22T13:14:47.785Z,33.24
2023-04-22T13:19:51.845Z,33.01
2023-04-22T13:24:57.382Z,31.92
2023-04-22T13:30:02.201Z,33.32
2023-04-22T13:35:08.036Z,31.13
2023-04-22T13:40:13.815Z,31.52
2023-04-22T13:45:18.035Z,33.71
2023-04-22T13:50:23.071Z,32.18
2023-04-22T13:55:29.565Z,32.73
2023-04-22T14:00:35.645Z,33.88
2023-04-22T14:05:40.872Z,32.56
2023-04-22T14:10:46.700Z,33.24
2023-04-22T14:15:51.523Z,32.16
2023-04-22T14:20:56.249Z,32.53
2023-04-22T14:26:02.213Z,33.53
2023-04-22T14:31:07.370Z,33.19
2023-04-22T14:36:11.872Z,32.91
2023-04-22T14:41:17.460Z,33.53
2023-04-22T14:46:21.743Z,33.85
2023-04-22T14:51:27.951Z,33.03
2023-04-22T14:56:34.439Z,30.42
2023-04-22T15:01:41.866Z,31.69
2023-04-22T15:06:46.786Z,32.32
2023-04-22T15:11:54.257Z,31.98
2023-04-22T15:16:58.700Z,32.89
2023-04-22T15:22:03.164Z,33.13
2023-04-22T15:27:09.117Z,33.65
2023-04-22T15:32:14.257Z,33.81
2023-04-22T15:37:18.250Z,34.78
2023-04-22T15:42:24.127Z,35.92
2023-04-22T15:47:29.569Z,36.19
2023-04-22T15:52:34.358Z,38.07
2023-04-22T15:57:40.116Z,38.37
2023-04-22T16:02:44.976Z,38.33
2023-04-22T16:07:49.303Z,37.99
2023-04-22T16:12:54.866Z,39.30
2023-04-22T16:17:58.733Z,38.80
2023-04-22T16:23:02.567Z,38.35
2023-04-22T16:28:08.822Z,39.23
2023-04-22T16:33:13.068Z,39.30
2023-04-22T16:38:17.018Z,39.28
2023-04-22T16:43:22.586Z,39.41
2023-04-22T16:48:26.905Z,40.49
2023-04-22T16:53:31.129Z,40.61
2023-04-22T16:58:36.711Z,41.01
2023-04-22T17:03:41.645Z,40.96
2023-04-22T17:08:46.242Z,41.65
2023-04-22T17:13:51.841Z,42.01
2023-04-22T17:18:56.298Z,42.48
2023-04-22T17:24:00.620Z,43.66
2023-04-22T17:29:06.615Z,44.06
2023-04-22T17:34:10.834Z,44.38
2023-04-22T17:39:15.327Z,44.76
2023-04-22T17:44:21.083Z,44.74
2023-04-22T17:49:25.350Z,44.87
2023-04-22T17:54:29.468Z,45.45
2023-04-22T17:59:42.715Z,46.35
2023-04-22T18:04:47.594Z,46.29
2023-04-22T18:09:51.871Z,47.24
2023-04-22T18:14:57.174Z,47.25
2023-04-22T18:20:10.249Z,47.53
2023-04-22T18:25:21.419Z,48.05
2023-04-22T18:30:26.968Z,48.56
2023-04-22T18:35:31.554Z,49.52
2023-04-22T18:40:35.952Z,49.67
2023-04-22T18:45:41.405Z,50.55
2023-04-22T18:50:45.613Z,51.08
2023-04-22T18:55:49.472Z,51.09
2023-04-22T19:00:54.654Z,52.13
2023-04-22T19:05:59.228Z,52.66
2023-04-22T19:11:03.314Z,52.68
2023-04-22T19:16:09.214Z,53.38
2023-04-22T19:21:13.531Z,54.05
2023-04-22T19:26:18.115Z,54.67
2023-04-22T19:31:24.187Z,55.52
2023-04-22T19:36:28.527Z,55.56
2023-04-22T19:41:33.567Z,56.55
2023-04-22T19:46:39.321Z,56.92
2023-04-22T19:51:43.976Z,57.60
2023-04-22T19:56:49.107Z,58.60
2023-04-22T20:01:55.070Z,59.67
2023-04-22T20:07:02.660Z,60.14
2023-04-22T20:12:07.874Z,61.06
2023-04-22T20:17:14.087Z,61.72
2023-04-22T20:22:18.754Z,62.70
2023-04-22T20:27:24.486Z,64.65
2023-04-22T20:32:31.663Z,65.00
2023-04-22T20:37:36.094Z,65.13
2023-04-22T20:42:40.457Z,67.31
2023-04-22T20:47:46.313Z,67.61
2023-04-22T20:52:52.289Z,68.11
2023-04-22T20:57:56.703Z,69.88
2023-04-22T21:03:02.420Z,71.33
2023-04-22T21:08:11.230Z,70.91
2023-04-22T21:13:16.055Z,72.56
2023-04-22T21:18:22.502Z,73.03
2023-04-22T21:23:27.358Z,74.25
2023-04-22T21:28:31.904Z,73.50
2023-04-22T21:33:37.705Z,74.59
2023-04-22T21:38:42.234Z,74.36
2023-04-22T21:43:46.582Z,75.02
2023-04-22T21:48:52.159Z,74.91
2023-04-22T21:53:56.158Z,80.06
2023-04-22T21:59:00.608Z,78.86
2023-04-22T22:04:06.502Z,78.79
2023-04-22T22:09:11.780Z,77.62
2023-04-22T22:14:16.308Z,77.49
2023-04-22T22:19:21.770Z,78.33
2023-04-22T22:24:25.812Z,78.66
2023-04-22T22:29:29.953Z,79.69
2023-04-22T22:34:35.563Z,81.11
2023-04-22T22:39:39.367Z,82.31
2023-04-22T22:44:43.600Z,81.88
2023-04-22T22:49:49.223Z,85.23
2023-04-22T22:54:53.200Z,83.61
2023-04-22T22:59:57.256Z,83.93
2023-04-22T23:05:03.691Z,82.97
2023-04-22T23:10:09.877Z,84.06
2023-04-22T23:15:13.922Z,83.50
2023-04-22T23:20:19.400Z,83.28
2023-04-22T23:25:24.507Z,84.23
2023-04-22T23:30:29.243Z,84.14
2023-04-22T23:35:36.387Z,83.83
2023-04-22T23:40:40.617Z,83.70
2023-04-22T23:45:44.489Z,83.93
2023-04-22T23:50:50.306Z,83.87
2023-04-22T23:55:54.852Z,84.58
